Aérodrome :
LOGIN :

S'inscrire | Disclaimer

   EN    FR    IT 

 










Légende :    VFR   VFR Marginal   IFR   IFR Intensif   IFR Très Intensif
Visi : 
Plafond : 
>= 8 km
>= 3000ft
5 à 8 km
1000 à 3000 ft
1500m à 5 km
500 à 1000 ft
800 à 1500m
200 à 500 ft
< 800m
< 200 ft
Symboles :   Orages  Brouillard  Fortes neiges  Fortes précipitations  Vent > 20 kt
SIGMETs :   Divers  Orages  Givrage  Turbulence  Onde Orograph.  Cendres Volcan.






- Altitude de l'aérodrome : 14 ft
- Code IATA : BRE


EDDW - Bremen Neuenland

DERNIER METAR :
  • 201820Z 21017G30KT 9999 -RA FEW024 BKN032 09/05 Q1005 NOSIG

METARs EXPIRÉS :
  • 201750Z 20014KT 9999 FEW038 BKN048 09/04 Q1006 TEMPO 21015G25KT
  • 201720Z 20013KT 9999 FEW044 09/04 Q1006 TEMPO 21015G25KT
  • 201650Z 20014KT 9999 FEW030 09/04 Q1007 TEMPO 21015G25KT
  • 201620Z 20011KT 170V230 9999 SCT034 BKN048 09/05 Q1007 TEMPO 21015G25KT

TAF TAF EDDW
Valide du 20 à 18h jusqu'au 21 à 18h UTC


201700Z 2018/2118 20013KT 9999 BKN025
BECMG 2018/2020 22020G35KT
TEMPO 2020/2023 29020G45KT 4500 RA BKN010
BECMG 2023/2102 25015G30KT
PROB30
TEMPO 2111/2115 25020G35KT



MET'MAP, la Météo Aéronautique d'un coup d'oeil ! - Copyright ORBIFLY Décembre 2007 - Disclaimer

ORBIFLY MET'MAP TEAM :

Programmation & Développement : Alexandra Zaïnal
Sur une idée originale de : Baudouin d'Aumeries
Assistance à la programmation : Marc-Olivier Méhu
Soutien technique & logistique : Manuel Goepfert

Contact : metmap@orbifly.com




SOURCES & CREDITS :

   NOAA